This is the latest recevied weather packets stored in our database for station/object ALANSN-2. If no packets are shown the sender has not sent any weather packets the latest 10 day(s).
| Time | Temp. | Humidity | Pressure | Rain* | Wind** | Luminosity | Snow |
|---|---|---|---|---|---|---|---|
| 1787675220 | 21.67° C | 73% | 1030.4 hPa | 0 mm | - | 348 W/m² | - |
| 1787674920 | 21.11° C | 76% | 1030.5 hPa | 0 mm | - | 264 W/m² | - |
| 1787674620 | 21.11° C | 76% | 1030.5 hPa | 0 mm | - | 264 W/m² | - |
| 1787674320 | 21.11° C | 78% | 1030.8 hPa | 0 mm | - | 267 W/m² | - |
| 1787674020 | 20° C | 81% | 1030.9 hPa | 0 mm | - | 361 W/m² | - |
| 1787673719 | 20° C | 81% | 1030.9 hPa | 0 mm | - | 361 W/m² | - |
| 1787673421 | 20° C | 82% | 1030.7 hPa | 0 mm | - | 377 W/m² | - |
| 1787673120 | 19.44° C | 85% | 1030.9 hPa | 0 mm | - | 332 W/m² | - |
| 1787672820 | 19.44° C | 85% | 1030.9 hPa | 0 mm | - | 332 W/m² | - |
| 1787672520 | 19.44° C | 85% | 1031.1 hPa | 0 mm | - | 365 W/m² | - |
| 1787672220 | 19.44° C | 84% | 1030.9 hPa | 0 mm | - | 293 W/m² | - |
| 1787671920 | 19.44° C | 84% | 1030.9 hPa | 0 mm | - | 293 W/m² | - |
| 1787671620 | 20° C | 82% | 1031.1 hPa | 0 mm | - | 278 W/m² | - |
| 1787671320 | 19.44° C | 83% | 1031.3 hPa | 0 mm | - | 258 W/m² | - |
| 1787671020 | 19.44° C | 83% | 1031.3 hPa | 0 mm | - | 258 W/m² | - |
| 1787670720 | 19.44° C | 83% | 1031.4 hPa | 0 mm | - | 277 W/m² | - |
| 1787670420 | 18.89° C | 86% | 1031.4 hPa | 0 mm | - | 297 W/m² | - |
| 1787670120 | 18.33° C | 88% | 1031.4 hPa | 0 mm | - | 241 W/m² | - |
| 1787669820 | 18.33° C | 89% | 1031.5 hPa | 0 mm | - | 262 W/m² | - |
| 1787669520 | 17.78° C | 90% | 1031.4 hPa | 0 mm | - | 214 W/m² | - |
| 1787669220 | 17.22° C | 91% | 1031.4 hPa | 0 mm | - | 158 W/m² | - |
| 1787668920 | 17.22° C | 91% | 1031.7 hPa | 0 mm | - | 154 W/m² | - |
| 1787668620 | 17.22° C | 92% | 1031.4 hPa | 0 mm | - | 141 W/m² | - |
| 1787668320 | 16.67° C | 94% | 1031.3 hPa | 0 mm | - | 120 W/m² | - |
| 1787668020 | 16.67° C | 94% | 1031.4 hPa | 0 mm | - | 118 W/m² | - |
* Rain latest hour (hover to see other rain measurements)
** Current wind speed in m/s (hover to see current wind gust speed)